Time;durP1;ratioP1;P1;durP2;ratioP2;P2;SDS_P1;SDS_P2;PMS_P1;PMS_P2;Temp;Humidity;BMP_temperature;BMP_pressure;BME280_temperature;BME280_humidity;BME280_pressure;Samples;Min_cycle;Max_cycle;Signal;HPM_P1;HPM_P2
2021/08/16 00:00:22;;;;;;;9.35;2.85;;;17.90;99.90;;;;;;5068348;28;20063;-86
2021/08/16 00:02:48;;;;;;;9.80;3.15;;;17.90;99.90;;;;;;5089118;28;20040;-86
2021/08/16 00:05:15;;;;;;;7.25;2.72;;;17.90;99.90;;;;;;5091974;28;20104;-87
2021/08/16 00:07:42;;;;;;;9.70;2.90;;;18.00;99.90;;;;;;5093177;28;20131;-86
2021/08/16 00:10:10;;;;;;;9.45;2.67;;;18.00;99.90;;;;;;5091945;28;20464;-87
2021/08/16 00:12:38;;;;;;;7.82;2.40;;;18.00;99.90;;;;;;5092945;28;20480;-86
2021/08/16 00:15:04;;;;;;;8.77;3.35;;;18.00;99.90;;;;;;5086389;28;20480;-87
2021/08/16 00:17:30;;;;;;;8.50;2.92;;;18.00;99.90;;;;;;5069891;28;20021;-86
2021/08/16 00:19:57;;;;;;;7.78;2.72;;;18.00;99.90;;;;;;5071301;28;20023;-87
2021/08/16 00:22:23;;;;;;;9.73;3.20;;;18.00;99.90;;;;;;5071490;28;20032;-87
2021/08/16 00:24:49;;;;;;;14.35;3.97;;;18.00;99.90;;;;;;5071320;28;20029;-88
2021/08/16 00:27:16;;;;;;;10.55;3.50;;;17.90;99.90;;;;;;5051151;28;20119;-86
2021/08/16 00:29:42;;;;;;;8.88;3.00;;;17.90;99.90;;;;;;5059014;28;20074;-87
2021/08/16 00:32:08;;;;;;;7.82;2.97;;;17.90;99.90;;;;;;5071283;28;20020;-85
2021/08/16 00:34:38;;;;;;;9.63;2.58;;;17.90;99.90;;;;;;5071734;28;20067;-87
2021/08/16 00:37:04;;;;;;;12.20;2.95;;;17.90;99.90;;;;;;5069039;28;20029;-86
2021/08/16 00:39:31;;;;;;;10.70;3.25;;;17.80;99.90;;;;;;5071153;28;20025;-86
2021/08/16 00:41:58;;;;;;;9.93;3.15;;;17.80;99.90;;;;;;5051141;28;20116;-87
2021/08/16 00:44:24;;;;;;;11.15;3.67;;;17.80;99.90;;;;;;5051491;28;20021;-85
2021/08/16 00:46:52;;;;;;;13.77;3.92;;;17.80;99.90;;;;;;5052313;28;20033;-86
2021/08/16 00:49:18;;;;;;;11.27;2.97;;;17.80;99.90;;;;;;5067816;28;20514;-87
2021/08/16 00:51:45;;;;;;;8.43;2.67;;;17.70;99.90;;;;;;5071412;28;20024;-86
2021/08/16 00:54:13;;;;;;;10.35;3.03;;;17.60;99.90;;;;;;5071343;28;20032;-88
2021/08/16 00:56:40;;;;;;;11.80;3.60;;;17.60;99.90;;;;;;5054963;28;20055;-86
2021/08/16 00:59:12;;;;;;;12.10;3.25;;;17.60;99.90;;;;;;5072671;28;20025;-88
2021/08/16 01:01:40;;;;;;;13.82;3.67;;;17.60;99.90;;;;;;5074222;28;20056;-85
2021/08/16 01:04:06;;;;;;;11.27;2.83;;;17.60;99.90;;;;;;5058837;28;20052;-87
2021/08/16 01:06:33;;;;;;;12.45;3.78;;;17.50;99.90;;;;;;5075930;28;20031;-87
2021/08/16 01:08:59;;;;;;;11.85;3.20;;;17.50;99.90;;;;;;5074868;28;20031;-87
2021/08/16 01:11:26;;;;;;;9.73;2.80;;;17.60;99.90;;;;;;5077004;28;20025;-86
2021/08/16 01:13:52;;;;;;;11.63;3.33;;;17.70;99.90;;;;;;5075943;28;20036;-86
2021/08/16 01:16:19;;;;;;;13.07;2.80;;;17.60;99.90;;;;;;5075324;28;20059;-86
2021/08/16 01:18:46;;;;;;;10.35;3.08;;;17.60;99.90;;;;;;5075170;28;20028;-88
2021/08/16 01:21:15;;;;;;;13.90;3.70;;;17.60;99.90;;;;;;5076691;28;20023;-88
2021/08/16 01:23:43;;;;;;;13.68;3.60;;;17.60;99.90;;;;;;5076269;28;20021;-86
2021/08/16 01:26:09;;;;;;;10.93;3.08;;;17.50;99.90;;;;;;5075396;28;20032;-88
2021/08/16 01:28:35;;;;;;;12.15;3.40;;;17.60;99.90;;;;;;5074862;28;20020;-88
2021/08/16 01:31:04;;;;;;;13.07;3.42;;;17.60;99.90;;;;;;5074392;28;20039;-89
2021/08/16 01:33:31;;;;;;;11.10;3.10;;;17.50;99.90;;;;;;5074253;28;20025;-89
2021/08/16 01:35:58;;;;;;;11.80;3.53;;;17.50;99.90;;;;;;5074365;28;20033;-87
2021/08/16 01:38:29;;;;;;;10.63;3.15;;;17.50;99.90;;;;;;5074439;28;20020;-87
2021/08/16 01:40:56;;;;;;;12.60;3.15;;;17.60;99.90;;;;;;5074132;28;20503;-86
2021/08/16 01:43:22;;;;;;;9.65;2.92;;;17.50;99.90;;;;;;5073969;28;20025;-87
2021/08/16 01:45:49;;;;;;;13.00;3.38;;;17.50;99.90;;;;;;5074131;28;20020;-88
2021/08/16 01:48:15;;;;;;;8.95;2.97;;;17.50;99.90;;;;;;5074251;28;20020;-87
2021/08/16 01:50:42;;;;;;;11.73;3.03;;;17.50;99.90;;;;;;5074220;28;20032;-87
2021/08/16 01:53:09;;;;;;;11.93;2.83;;;17.50;99.90;;;;;;5073763;28;20495;-86
2021/08/16 01:55:35;;;;;;;9.27;3.10;;;17.50;99.90;;;;;;5074079;28;20024;-87
2021/08/16 01:58:01;;;;;;;11.02;3.00;;;17.50;99.90;;;;;;5073916;28;20028;-87
2021/08/16 02:00:27;;;;;;;8.60;2.60;;;17.50;99.90;;;;;;5073852;28;20154;-87
2021/08/16 02:02:54;;;;;;;13.73;3.88;;;17.40;99.90;;;;;;5073543;28;20409;-87
2021/08/16 02:05:20;;;;;;;13.02;3.17;;;17.50;99.90;;;;;;5073791;28;20111;-86
2021/08/16 02:07:46;;;;;;;11.73;3.30;;;17.40;99.90;;;;;;5073258;28;20024;-87
2021/08/16 02:10:12;;;;;;;14.32;3.70;;;17.30;99.90;;;;;;5073327;28;20103;-86
2021/08/16 02:12:39;;;;;;;10.13;3.03;;;17.30;99.90;;;;;;5071720;28;20040;-87
2021/08/16 02:15:10;;;;;;;13.13;3.40;;;17.30;99.90;;;;;;5074655;28;20111;-88
2021/08/16 02:17:36;;;;;;;10.55;3.28;;;17.30;99.90;;;;;;5072722;28;20028;-88
2021/08/16 02:20:07;;;;;;;15.60;4.03;;;17.30;99.90;;;;;;5073092;28;20028;-88
2021/08/16 02:22:34;;;;;;;7.75;2.92;;;17.20;99.90;;;;;;5073422;28;20027;-87
2021/08/16 02:25:00;;;;;;;12.18;3.38;;;17.20;99.90;;;;;;5072944;28;20526;-88
2021/08/16 02:27:26;;;;;;;12.65;3.10;;;17.20;99.90;;;;;;5070606;28;20546;-87
2021/08/16 02:29:52;;;;;;;13.23;4.00;;;17.20;99.90;;;;;;5081584;28;20525;-88
2021/08/16 02:32:18;;;;;;;10.95;2.58;;;17.20;99.90;;;;;;5087608;28;20038;-89
2021/08/16 02:34:44;;;;;;;16.65;3.72;;;17.20;99.90;;;;;;5090279;28;20095;-86
2021/08/16 02:37:11;;;;;;;12.15;3.33;;;17.20;99.90;;;;;;5093484;28;20042;-86
2021/08/16 02:39:37;;;;;;;15.68;4.07;;;17.20;99.90;;;;;;5093185;28;20438;-87
2021/08/16 02:42:03;;;;;;;12.07;3.47;;;17.20;99.90;;;;;;5093877;28;20097;-88
2021/08/16 02:44:30;;;;;;;11.23;3.30;;;17.20;99.90;;;;;;5093813;28;20028;-87
2021/08/16 02:46:58;;;;;;;10.75;3.20;;;17.20;99.90;;;;;;5093664;28;20016;-87
2021/08/16 02:49:24;;;;;;;11.93;2.67;;;17.10;99.90;;;;;;5093670;28;20020;-87
2021/08/16 02:51:50;;;;;;;12.23;3.67;;;17.10;99.90;;;;;;5093344;28;20543;-87
2021/08/16 02:54:17;;;;;;;11.70;3.25;;;17.10;99.90;;;;;;5093609;28;20491;-87
2021/08/16 02:56:43;;;;;;;10.25;3.25;;;17.10;99.90;;;;;;5093538;28;20027;-88
2021/08/16 02:59:09;;;;;;;8.68;2.88;;;17.10;99.90;;;;;;5093376;28;20024;-87
2021/08/16 03:01:36;;;;;;;9.55;3.15;;;17.10;99.90;;;;;;5093504;28;20061;-87
2021/08/16 03:04:02;;;;;;;16.45;3.80;;;17.10;99.90;;;;;;5093076;28;20052;-88
2021/08/16 03:06:28;;;;;;;13.77;3.67;;;17.10;99.90;;;;;;5094312;28;20032;-87
2021/08/16 03:08:56;;;;;;;15.55;3.70;;;17.00;99.90;;;;;;5093291;28;20106;-87
2021/08/16 03:11:23;;;;;;;11.43;3.60;;;17.00;99.90;;;;;;5092905;28;20402;-85
2021/08/16 03:13:49;;;;;;;11.38;3.28;;;17.10;99.90;;;;;;5093239;28;20085;-87
2021/08/16 03:16:15;;;;;;;11.70;3.30;;;17.10;99.90;;;;;;5093197;28;20021;-88
2021/08/16 03:18:42;;;;;;;11.18;3.63;;;17.10;99.90;;;;;;5093306;28;20024;-85
2021/08/16 03:21:09;;;;;;;11.75;3.05;;;17.10;99.90;;;;;;5093086;28;20490;-87
2021/08/16 03:23:35;;;;;;;12.00;3.10;;;17.10;99.90;;;;;;5092199;28;20115;-87
2021/08/16 03:26:02;;;;;;;15.05;3.92;;;17.10;99.90;;;;;;5094023;28;20048;-87
2021/08/16 03:28:28;;;;;;;15.63;4.10;;;17.20;99.90;;;;;;5092934;28;20503;-87
2021/08/16 03:30:55;;;;;;;11.50;3.15;;;17.20;99.90;;;;;;5094315;28;20107;-87
2021/08/16 03:33:21;;;;;;;10.93;3.25;;;17.20;99.90;;;;;;5092633;28;20035;-87
2021/08/16 03:35:47;;;;;;;12.80;3.90;;;17.20;99.90;;;;;;5092692;28;20036;-87
2021/08/16 03:38:13;;;;;;;10.52;2.78;;;17.20;99.90;;;;;;5092886;28;20112;-87
2021/08/16 03:40:39;;;;;;;10.90;2.80;;;17.20;99.90;;;;;;5093825;28;20058;-89
2021/08/16 03:43:05;;;;;;;12.98;3.88;;;17.20;99.90;;;;;;5092598;28;20020;-87
2021/08/16 03:45:31;;;;;;;13.55;3.35;;;17.30;99.90;;;;;;5092699;28;20020;-87
2021/08/16 03:47:57;;;;;;;12.75;3.85;;;17.30;99.90;;;;;;5093946;28;20028;-86
2021/08/16 03:50:23;;;;;;;11.40;3.95;;;17.30;99.90;;;;;;5092596;28;20109;-88
2021/08/16 03:52:49;;;;;;;13.20;3.58;;;17.30;99.90;;;;;;5093460;28;20024;-89
2021/08/16 03:55:14;;;;;;;13.27;3.47;;;17.30;99.90;;;;;;5092628;28;20058;-87
2021/08/16 03:57:40;;;;;;;12.75;4.00;;;17.30;99.90;;;;;;5092352;28;20032;-87
2021/08/16 04:00:08;;;;;;;8.15;2.75;;;17.30;99.90;;;;;;5092576;28;20016;-86
2021/08/16 04:02:34;;;;;;;12.82;4.18;;;17.40;99.90;;;;;;5075270;28;20060;-86
2021/08/16 04:05:00;;;;;;;11.52;3.55;;;17.30;99.90;;;;;;5092338;28;20114;-88
2021/08/16 04:07:26;;;;;;;11.10;3.58;;;17.30;99.90;;;;;;5092196;28;20441;-87
2021/08/16 04:09:52;;;;;;;9.55;3.00;;;17.30;99.90;;;;;;5093226;28;20025;-88
2021/08/16 04:12:18;;;;;;;15.07;3.80;;;17.30;99.90;;;;;;5092008;28;20066;-87
2021/08/16 04:14:44;;;;;;;9.40;3.25;;;17.40;99.90;;;;;;5092501;28;20052;-87
2021/08/16 04:17:09;;;;;;;11.82;3.50;;;17.40;99.90;;;;;;5093283;28;20039;-88
2021/08/16 04:19:35;;;;;;;9.85;3.13;;;17.30;99.90;;;;;;5092323;28;20024;-87
2021/08/16 04:22:01;;;;;;;8.35;2.97;;;17.40;99.90;;;;;;5092098;28;20039;-87
2021/08/16 04:24:27;;;;;;;7.93;3.47;;;17.40;99.90;;;;;;5075643;28;20464;-86
2021/08/16 04:26:52;;;;;;;10.18;3.03;;;17.40;99.90;;;;;;5092169;28;20057;-87
2021/08/16 04:29:19;;;;;;;11.70;3.65;;;17.40;99.90;;;;;;5093819;28;20123;-86
2021/08/16 04:31:46;;;;;;;12.73;3.70;;;17.40;99.90;;;;;;5091796;28;20106;-87
2021/08/16 04:34:12;;;;;;;13.00;3.17;;;17.30;99.90;;;;;;5076621;28;20056;-87
2021/08/16 04:36:38;;;;;;;11.27;2.80;;;17.30;99.90;;;;;;5078594;28;20036;-88
2021/08/16 04:39:04;;;;;;;14.38;4.22;;;17.30;99.90;;;;;;5093031;28;20438;-86
2021/08/16 04:41:32;;;;;;;14.02;4.70;;;17.30;99.90;;;;;;5076852;28;20163;-86
2021/08/16 04:44:04;;;;;;;11.60;4.05;;;17.30;99.90;;;;;;5093635;28;20078;-87
2021/08/16 04:46:30;;;;;;;10.98;3.40;;;17.30;99.90;;;;;;5093927;28;20012;-86
2021/08/16 04:48:58;;;;;;;13.05;4.10;;;17.20;99.90;;;;;;5093856;28;20364;-87
2021/08/16 04:51:26;;;;;;;9.77;3.70;;;17.20;99.90;;;;;;5093566;28;20488;-86
2021/08/16 04:53:58;;;;;;;11.35;4.30;;;17.20;99.90;;;;;;5094858;28;20441;-88
2021/08/16 04:56:33;;;;;;;10.77;4.13;;;17.20;99.90;;;;;;5076961;28;20024;-87
2021/08/16 04:59:00;;;;;;;10.60;4.75;;;17.20;99.90;;;;;;5094058;28;20028;-86
2021/08/16 05:01:27;;;;;;;12.77;4.35;;;17.20;99.90;;;;;;5093597;28;20028;-86
2021/08/16 05:03:53;;;;;;;15.48;5.72;;;17.20;99.90;;;;;;5076565;28;20056;-86
2021/08/16 05:06:28;;;;;;;14.25;4.72;;;17.30;99.90;;;;;;5094176;28;20024;-86
2021/08/16 05:08:54;;;;;;;16.80;5.68;;;17.20;99.90;;;;;;5093440;28;20459;-87
2021/08/16 05:11:22;;;;;;;14.50;4.80;;;17.30;99.90;;;;;;5092852;28;20043;-86
2021/08/16 05:13:49;;;;;;;13.20;5.18;;;17.30;99.90;;;;;;5093152;28;20069;-86
2021/08/16 05:16:16;;;;;;;10.13;5.00;;;17.30;99.90;;;;;;5093318;28;20380;-86
2021/08/16 05:18:42;;;;;;;13.93;6.30;;;17.40;99.90;;;;;;5092969;28;20016;-87
2021/08/16 05:21:07;;;;;;;11.13;5.65;;;17.40;99.90;;;;;;5079007;28;20028;-86
2021/08/16 05:23:37;;;;;;;12.43;4.75;;;17.40;99.90;;;;;;5072677;28;20028;-86
2021/08/16 05:26:05;;;;;;;8.55;4.60;;;17.50;99.90;;;;;;5073836;28;20024;-87
2021/08/16 05:28:31;;;;;;;17.00;7.10;;;17.50;99.90;;;;;;5072796;28;20409;-89
2021/08/16 05:31:00;;;;;;;14.57;6.10;;;17.50;99.90;;;;;;5073423;28;20016;-87
2021/08/16 05:33:25;;;;;;;15.05;6.38;;;17.60;99.90;;;;;;5055596;28;20771;-88
2021/08/16 05:35:51;;;;;;;15.40;6.32;;;17.60;99.90;;;;;;5072837;28;20129;-87
2021/08/16 05:38:17;;;;;;;14.32;7.35;;;17.60;99.90;;;;;;5072319;28;20064;-89
2021/08/16 05:40:48;;;;;;;13.55;6.38;;;17.60;99.90;;;;;;5071676;28;20032;-88
2021/08/16 05:43:14;;;;;;;15.07;8.52;;;17.60;99.90;;;;;;5072217;28;20040;-87
2021/08/16 05:45:40;;;;;;;16.77;8.80;;;17.60;99.90;;;;;;5071812;28;20027;-87
2021/08/16 05:48:06;;;;;;;12.35;6.68;;;17.60;99.90;;;;;;5073715;28;20062;-88
2021/08/16 05:50:32;;;;;;;14.65;7.90;;;17.70;99.90;;;;;;5055183;28;20036;-87
2021/08/16 05:52:58;;;;;;;14.65;8.13;;;17.70;99.90;;;;;;5073927;28;20032;-88
2021/08/16 05:55:23;;;;;;;12.55;8.02;;;17.70;99.90;;;;;;5073008;28;20464;-87
2021/08/16 05:57:49;;;;;;;14.93;8.50;;;17.80;99.90;;;;;;5074367;28;20025;-87
2021/08/16 06:00:19;;;;;;;12.23;8.15;;;17.80;99.90;;;;;;5076042;28;20028;-89
2021/08/16 06:02:45;;;;;;;11.43;7.88;;;17.80;99.90;;;;;;5073814;28;20067;-88
2021/08/16 06:05:11;;;;;;;16.23;8.48;;;17.80;99.90;;;;;;5074370;28;20033;-87
2021/08/16 06:07:38;;;;;;;20.83;10.73;;;17.70;99.90;;;;;;5073765;28;20047;-87
2021/08/16 06:10:10;;;;;;;16.85;9.80;;;17.70;99.90;;;;;;5074000;28;20112;-87
2021/08/16 06:12:38;;;;;;;17.63;9.95;;;17.70;99.90;;;;;;5075147;28;20063;-88
2021/08/16 06:15:05;;;;;;;21.15;12.27;;;17.60;99.90;;;;;;5075168;28;20115;-88
2021/08/16 06:17:36;;;;;;;20.45;10.43;;;17.60;99.90;;;;;;5074846;28;20403;-88
2021/08/16 06:20:03;;;;;;;12.00;9.75;;;17.70;99.90;;;;;;5074023;28;20020;-86
2021/08/16 06:22:30;;;;;;;20.02;10.00;;;17.70;99.90;;;;;;5073618;28;20040;-87
2021/08/16 06:24:56;;;;;;;14.70;9.63;;;17.80;99.90;;;;;;5074081;28;20029;-90
2021/08/16 06:27:21;;;;;;;15.93;10.23;;;17.80;99.90;;;;;;5074073;28;20520;-89
2021/08/16 06:29:48;;;;;;;19.08;12.05;;;17.70;99.90;;;;;;5074105;28;20035;-88
2021/08/16 06:32:16;;;;;;;18.73;11.55;;;17.60;99.90;;;;;;5072589;28;20154;-89
2021/08/16 06:34:44;;;;;;;21.52;14.15;;;17.60;99.90;;;;;;5056168;28;20534;-89
2021/08/16 06:37:10;;;;;;;21.33;12.63;;;17.30;99.90;;;;;;5073141;28;20036;-88
2021/08/16 06:39:38;;;;;;;21.27;11.85;;;17.10;99.90;;;;;;5087026;28;20027;-90
2021/08/16 06:42:05;;;;;;;25.15;17.52;;;16.90;99.90;;;;;;5075611;28;20031;-88
2021/08/16 06:44:32;;;;;;;20.92;16.10;;;16.80;99.90;;;;;;5078961;28;20016;-86
2021/08/16 06:47:00;;;;;;;21.30;15.40;;;16.60;99.90;;;;;;5081450;28;20089;-86
2021/08/16 06:49:28;;;;;;;25.00;16.60;;;16.60;99.90;;;;;;5079438;28;20029;-87
2021/08/16 06:51:56;;;;;;;24.33;16.90;;;16.50;99.90;;;;;;5089182;28;20395;-86
2021/08/16 06:54:23;;;;;;;22.92;18.58;;;16.50;99.90;;;;;;5077349;28;20024;-86
2021/08/16 06:56:50;;;;;;;22.13;16.05;;;16.40;99.90;;;;;;5085715;28;20029;-85
2021/08/16 06:59:16;;;;;;;19.00;16.75;;;16.40;99.90;;;;;;5083793;28;20452;-87
2021/08/16 07:01:43;;;;;;;23.88;18.98;;;16.40;99.90;;;;;;5079761;28;20059;-87
2021/08/16 07:04:10;;;;;;;22.50;17.83;;;16.40;99.90;;;;;;5073918;28;20496;-88
2021/08/16 07:06:36;;;;;;;23.13;17.30;;;16.40;99.90;;;;;;5088613;28;20366;-86
2021/08/16 07:09:02;;;;;;;19.77;14.90;;;16.30;99.90;;;;;;5081640;28;20020;-86
2021/08/16 07:11:27;;;;;;;23.80;16.02;;;16.30;99.90;;;;;;5072326;28;20016;-86
2021/08/16 07:13:54;;;;;;;17.08;13.32;;;16.40;99.90;;;;;;5080027;28;20130;-86
2021/08/16 07:16:21;;;;;;;19.27;14.30;;;16.40;99.90;;;;;;5062133;28;20032;-86
2021/08/16 07:18:47;;;;;;;15.98;12.75;;;16.50;99.90;;;;;;5087070;28;20028;-86
2021/08/16 07:21:13;;;;;;;19.65;13.23;;;16.50;99.90;;;;;;5082569;28;20017;-87
2021/08/16 07:23:38;;;;;;;19.88;13.63;;;16.50;99.90;;;;;;5080472;28;20032;-87
2021/08/16 07:26:06;;;;;;;15.80;11.88;;;16.50;99.90;;;;;;5088951;28;20047;-87
2021/08/16 07:28:33;;;;;;;13.35;10.25;;;16.50;99.90;;;;;;5076779;28;20076;-87
2021/08/16 07:31:00;;;;;;;12.85;9.82;;;16.50;99.90;;;;;;5083854;28;20012;-87
2021/08/16 07:33:26;;;;;;;12.32;9.93;;;16.50;99.90;;;;;;5073530;28;20028;-83
2021/08/16 07:35:53;;;;;;;11.93;8.20;;;16.50;99.90;;;;;;5089090;28;20110;-85
2021/08/16 07:38:18;;;;;;;8.80;7.50;;;16.50;99.90;;;;;;5076714;28;20016;-86
2021/08/16 07:40:45;;;;;;;9.50;7.32;;;16.50;99.90;;;;;;5085539;28;20020;-86
2021/08/16 07:43:10;;;;;;;7.68;6.50;;;16.60;99.90;;;;;;5080951;28;20089;-85
2021/08/16 07:45:38;;;;;;;6.00;5.20;;;16.60;99.90;;;;;;5071844;28;20418;-85
2021/08/16 07:48:04;;;;;;;7.22;4.75;;;16.60;99.90;;;;;;5088396;28;20482;-86
2021/08/16 07:50:31;;;;;;;8.20;3.78;;;16.60;99.90;;;;;;5077730;28;20054;-84
2021/08/16 07:52:58;;;;;;;4.97;3.20;;;16.60;99.90;;;;;;5082974;28;20384;-84
2021/08/16 07:55:25;;;;;;;4.38;2.95;;;16.60;99.90;;;;;;5072005;28;20357;-84
2021/08/16 07:57:51;;;;;;;7.07;3.22;;;16.60;99.90;;;;;;5088860;28;20035;-84
2021/08/16 08:00:16;;;;;;;7.72;3.45;;;16.70;99.90;;;;;;5074839;28;20025;-84
2021/08/16 08:02:43;;;;;;;5.53;2.97;;;16.70;99.90;;;;;;5087235;28;20056;-84
2021/08/16 08:05:11;;;;;;;6.20;3.20;;;16.70;99.90;;;;;;5081199;28;20452;-84
2021/08/16 08:07:37;;;;;;;4.20;2.53;;;16.80;99.90;;;;;;5077791;28;20171;-84
2021/08/16 08:10:04;;;;;;;6.78;2.85;;;16.90;99.90;;;;;;5087532;28;20114;-84
2021/08/16 08:12:30;;;;;;;3.70;2.35;;;16.90;99.90;;;;;;5075851;28;20061;-84
2021/08/16 08:14:56;;;;;;;4.15;2.33;;;17.00;99.90;;;;;;5077334;28;20036;-85
2021/08/16 08:17:22;;;;;;;6.07;2.85;;;17.10;99.90;;;;;;5074509;28;20108;-85
2021/08/16 08:19:50;;;;;;;5.68;2.72;;;17.10;99.90;;;;;;5088069;28;20480;-84
2021/08/16 08:22:18;;;;;;;5.10;2.67;;;17.00;99.90;;;;;;5074862;28;20029;-84
2021/08/16 08:24:44;;;;;;;4.72;2.50;;;17.00;99.90;;;;;;5078192;28;20480;-84
2021/08/16 08:27:13;;;;;;;5.22;2.50;;;16.90;99.90;;;;;;5072810;28;20028;-85
2021/08/16 08:29:40;;;;;;;5.18;2.70;;;16.80;99.90;;;;;;5071860;28;20177;-85
2021/08/16 08:32:06;;;;;;;3.83;2.50;;;16.50;99.90;;;;;;5071265;28;20031;-84
2021/08/16 08:34:33;;;;;;;4.63;2.40;;;16.40;99.90;;;;;;5070939;28;20368;-85
2021/08/16 08:36:59;;;;;;;5.05;2.35;;;16.40;99.90;;;;;;5079261;28;20032;-84
2021/08/16 08:39:28;;;;;;;4.88;2.38;;;16.40;99.90;;;;;;5077660;28;20051;-84
2021/08/16 08:41:57;;;;;;;4.50;2.95;;;16.30;99.90;;;;;;5082964;28;20058;-83
2021/08/16 08:44:23;;;;;;;4.97;2.38;;;16.40;99.90;;;;;;5064515;28;20020;-84
2021/08/16 08:46:50;;;;;;;4.68;2.38;;;16.40;99.90;;;;;;5084196;28;20086;-83
2021/08/16 08:49:16;;;;;;;3.92;2.22;;;16.50;99.90;;;;;;5082099;28;20020;-84
2021/08/16 08:51:43;;;;;;;6.45;2.45;;;16.60;99.90;;;;;;5078265;28;20032;-84
2021/08/16 08:54:10;;;;;;;4.75;2.50;;;16.70;99.90;;;;;;5082354;28;20082;-85
2021/08/16 08:56:36;;;;;;;5.03;2.97;;;16.80;99.90;;;;;;5077909;28;20024;-83
2021/08/16 08:59:02;;;;;;;3.08;2.10;;;16.90;99.90;;;;;;5082466;28;20460;-85
2021/08/16 09:01:28;;;;;;;4.53;2.33;;;17.10;99.90;;;;;;5084782;28;20066;-85
2021/08/16 09:03:55;;;;;;;4.18;2.42;;;17.20;99.90;;;;;;5074404;28;20078;-84
2021/08/16 09:06:35;;;;;;;9.00;2.90;;;17.30;99.90;;;;;;5088106;28;20028;-85
2021/08/16 09:09:02;;;;;;;6.35;2.65;;;17.30;99.90;;;;;;5079769;28;20034;-84
2021/08/16 09:11:28;;;;;;;6.10;2.97;;;17.30;99.90;;;;;;5078395;28;20116;-84
2021/08/16 09:14:06;;;;;;;7.38;2.88;;;17.40;99.90;;;;;;5069146;28;20443;-84
2021/08/16 09:16:36;;;;;;;5.38;2.60;;;17.40;99.90;;;;;;5073908;28;20423;-84
2021/08/16 09:19:18;;;;;;;4.90;2.72;;;17.50;99.90;;;;;;5083273;28;20382;-84
2021/08/16 09:21:56;;;;;;;5.65;2.90;;;17.60;99.90;;;;;;5087863;28;20491;-84
2021/08/16 09:24:27;;;;;;;6.18;2.60;;;17.60;99.90;;;;;;5078113;28;20070;-84
2021/08/16 09:27:01;;;;;;;6.97;2.83;;;17.80;99.90;;;;;;5074611;28;20055;-85
2021/08/16 09:29:28;;;;;;;6.25;3.08;;;17.90;99.90;;;;;;5086657;28;20052;-85
2021/08/16 09:31:54;;;;;;;7.05;2.83;;;17.90;99.90;;;;;;5077882;28;20032;-85
2021/08/16 09:34:42;;;;;;;5.13;2.15;;;17.90;99.90;;;;;;5077080;28;20033;-85
2021/08/16 09:37:20;;;;;;;4.53;2.40;;;17.90;99.90;;;;;;5084473;28;20477;-84
2021/08/16 09:40:11;;;;;;;5.45;2.63;;;17.80;99.90;;;;;;5089292;28;20552;-85
2021/08/16 09:42:48;;;;;;;5.10;2.42;;;17.70;99.90;;;;;;5073039;28;20040;-84
2021/08/16 09:45:30;;;;;;;4.65;2.15;;;17.60;99.90;;;;;;5079681;28;20056;-84
2021/08/16 09:47:58;;;;;;;4.35;2.40;;;17.60;99.90;;;;;;5075416;28;20020;-85
2021/08/16 09:50:41;;;;;;;6.55;2.58;;;17.50;99.90;;;;;;5061475;28;20024;-84
2021/08/16 09:53:08;;;;;;;4.35;2.63;;;17.50;99.90;;;;;;5084762;28;20024;-85
2021/08/16 09:55:39;;;;;;;6.78;2.80;;;17.40;99.90;;;;;;5080655;28;20028;-85
2021/08/16 09:58:14;;;;;;;6.60;3.40;;;17.40;99.90;;;;;;5076191;28;20025;-86
2021/08/16 10:00:42;;;;;;;8.13;3.38;;;17.40;99.90;;;;;;5071636;28;20502;-85
2021/08/16 10:03:12;;;;;;;5.40;3.25;;;17.50;99.90;;;;;;5074395;28;20075;-85
2021/08/16 10:05:50;;;;;;;6.53;3.00;;;17.60;99.90;;;;;;5081402;28;20472;-85
2021/08/16 10:08:26;;;;;;;6.32;3.22;;;17.80;99.90;;;;;;5074667;28;20052;-85
2021/08/16 10:10:55;;;;;;;6.57;3.47;;;17.90;99.90;;;;;;5081257;28;20028;-85
2021/08/16 10:13:21;;;;;;;7.78;3.83;;;18.00;99.90;;;;;;5081912;28;20032;-85
2021/08/16 10:15:52;;;;;;;8.80;3.83;;;18.00;99.90;;;;;;5064143;28;20032;-84
2021/08/16 10:18:42;;;;;;;6.40;3.75;;;18.10;99.90;;;;;;5075990;28;20032;-86
2021/08/16 10:21:08;;;;;;;6.95;3.78;;;18.30;99.90;;;;;;5084079;28;20043;-85
2021/08/16 10:23:45;;;;;;;8.20;4.03;;;18.60;99.90;;;;;;5086931;28;20020;-85
2021/08/16 10:26:11;;;;;;;9.38;4.45;;;18.90;99.90;;;;;;5074614;28;20024;-85
2021/08/16 10:28:41;;;;;;;7.30;3.92;;;19.50;99.90;;;;;;5078171;28;20024;-85
2021/08/16 10:31:09;;;;;;;8.88;4.80;;;20.60;99.90;;;;;;5067422;28;20379;-85
2021/08/16 10:33:46;;;;;;;10.13;4.57;;;21.70;99.90;;;;;;5072858;28;20032;-85
2021/08/16 10:36:24;;;;;;;9.52;4.60;;;22.50;99.90;;;;;;5063963;28;20041;-85
2021/08/16 10:38:56;;;;;;;7.05;4.07;;;22.70;99.90;;;;;;5076453;28;20451;-85
2021/08/16 10:41:27;;;;;;;8.18;4.45;;;22.90;99.90;;;;;;5078123;28;20071;-85
2021/08/16 10:43:54;;;;;;;7.47;4.60;;;22.60;99.90;;;;;;5085604;28;20024;-85
2021/08/16 10:46:21;;;;;;;8.25;4.63;;;22.60;99.90;;;;;;5073414;28;20263;-85
2021/08/16 10:48:59;;;;;;;10.00;4.53;;;22.40;99.90;;;;;;5083576;28;20073;-86
2021/08/16 10:51:37;;;;;;;7.85;4.40;;;22.10;99.90;;;;;;5077547;28;20032;-85
2021/08/16 10:54:02;;;;;;;7.70;4.07;;;21.60;99.90;;;;;;5086015;28;20024;-85
2021/08/16 10:56:30;;;;;;;9.55;5.35;;;21.30;99.90;;;;;;5073580;28;20031;-86
2021/08/16 10:58:59;;;;;;;9.52;5.00;;;21.00;99.90;;;;;;5082190;28;20039;-85
2021/08/16 11:01:29;;;;;;;9.43;5.40;;;20.60;99.90;;;;;;5084104;28;20032;-86
2021/08/16 11:04:03;;;;;;;9.00;4.82;;;20.40;99.90;;;;;;5074924;28;20056;-86
2021/08/16 11:06:29;;;;;;;8.02;4.80;;;20.30;99.90;;;;;;5061938;28;20044;-86
2021/08/16 11:09:02;;;;;;;7.38;4.50;;;20.30;99.90;;;;;;5076327;28;20028;-86
2021/08/16 11:11:33;;;;;;;9.30;4.55;;;20.60;99.90;;;;;;5071395;28;20025;-86
2021/08/16 11:14:06;;;;;;;8.95;4.07;;;20.70;99.90;;;;;;5071102;28;20515;-85
2021/08/16 11:16:32;;;;;;;7.00;3.60;;;20.70;99.90;;;;;;5076478;28;20024;-85
2021/08/16 11:19:00;;;;;;;8.25;3.80;;;20.60;99.90;;;;;;5083016;28;20035;-87
2021/08/16 11:21:29;;;;;;;5.18;3.17;;;20.50;99.90;;;;;;5082785;28;20114;-85
2021/08/16 11:24:02;;;;;;;7.57;3.45;;;20.40;99.90;;;;;;5073780;28;20380;-85
2021/08/16 11:26:29;;;;;;;6.30;3.40;;;20.20;99.90;;;;;;5064513;28;20085;-86
2021/08/16 11:29:05;;;;;;;5.05;2.83;;;19.80;99.90;;;;;;5066868;28;20052;-86
2021/08/16 11:31:32;;;;;;;5.00;2.78;;;19.60;99.90;;;;;;5084963;28;20028;-86
2021/08/16 11:34:06;;;;;;;5.57;3.10;;;19.50;99.90;;;;;;5074766;28;20032;-86
2021/08/16 11:36:36;;;;;;;6.30;2.60;;;19.30;99.90;;;;;;5081840;28;20032;-87
2021/08/16 11:39:05;;;;;;;3.90;2.50;;;19.20;99.90;;;;;;5082450;28;20024;-87
2021/08/16 11:41:33;;;;;;;6.88;2.78;;;19.10;99.90;;;;;;5078610;28;20029;-87
2021/08/16 11:44:15;;;;;;;6.82;3.15;;;18.90;99.90;;;;;;5054837;28;20048;-87
2021/08/16 11:46:42;;;;;;;5.03;2.60;;;18.60;99.90;;;;;;5079411;28;20031;-85
2021/08/16 11:49:12;;;;;;;4.78;2.65;;;18.30;99.90;;;;;;5081674;28;20060;-86
2021/08/16 11:51:43;;;;;;;5.38;2.63;;;18.30;99.90;;;;;;5077641;28;20031;-85
2021/08/16 11:54:10;;;;;;;5.03;2.80;;;18.30;99.90;;;;;;5088120;28;20112;-84
2021/08/16 11:56:51;;;;;;;5.05;2.72;;;18.40;99.90;;;;;;5077686;28;20494;-86
2021/08/16 11:59:17;;;;;;;6.28;3.30;;;18.40;99.90;;;;;;5078238;28;20376;-87
2021/08/16 12:01:44;;;;;;;6.45;2.70;;;18.40;99.90;;;;;;5070586;28;20029;-85
2021/08/16 12:04:13;;;;;;;6.00;3.03;;;18.40;99.90;;;;;;5071145;28;20048;-86
2021/08/16 12:06:40;;;;;;;7.43;3.47;;;18.40;99.90;;;;;;5070192;28;20090;-87
2021/08/16 12:09:10;;;;;;;6.22;2.58;;;18.30;99.90;;;;;;5070864;28;20017;-85
2021/08/16 12:11:37;;;;;;;6.85;2.95;;;18.10;99.90;;;;;;5070966;28;20412;-85
2021/08/16 12:14:05;;;;;;;8.40;2.97;;;17.90;99.90;;;;;;5089199;28;20034;-85
2021/08/16 12:16:33;;;;;;;7.30;3.10;;;17.60;99.90;;;;;;5075535;28;20028;-86
2021/08/16 12:19:00;;;;;;;8.52;3.35;;;17.30;99.90;;;;;;5083374;28;20028;-87
2021/08/16 12:21:28;;;;;;;6.95;2.80;;;17.00;99.90;;;;;;5084207;28;20081;-84
2021/08/16 12:24:01;;;;;;;7.28;2.85;;;16.60;99.90;;;;;;5073202;28;20063;-85
2021/08/16 12:26:29;;;;;;;6.75;2.92;;;16.40;99.90;;;;;;5067027;28;20066;-85
2021/08/16 12:28:56;;;;;;;6.63;2.67;;;16.40;99.90;;;;;;5079510;28;20023;-86
2021/08/16 12:31:28;;;;;;;6.82;2.78;;;16.40;99.90;;;;;;5077544;28;20075;-84
2021/08/16 12:34:04;;;;;;;4.72;2.50;;;16.50;99.90;;;;;;5073357;28;20056;-84
2021/08/16 12:36:37;;;;;;;4.75;2.35;;;16.60;99.90;;;;;;5066447;28;20047;-84
2021/08/16 12:39:08;;;;;;;8.15;2.40;;;16.60;99.90;;;;;;5071393;28;20021;-85
2021/08/16 12:41:37;;;;;;;4.38;2.10;;;16.80;99.90;;;;;;5069951;28;20028;-85
2021/08/16 12:44:17;;;;;;;4.85;2.17;;;16.90;99.90;;;;;;5073216;28;20029;-85